sensor_id;sensor_type;location;lat;lon;timestamp;temperature;humidity
63960;DHT22;50136;51.374;0.096;2023-06-10T00:00:28;17.00;99.90
63960;DHT22;50136;51.374;0.096;2023-06-10T00:10:30;17.00;99.90
63960;DHT22;50136;51.374;0.096;2023-06-10T00:20:33;17.00;99.90
63960;DHT22;50136;51.374;0.096;2023-06-10T00:30:35;16.80;99.90
63960;DHT22;50136;51.374;0.096;2023-06-10T00:40:40;16.70;99.90
63960;DHT22;50136;51.374;0.096;2023-06-10T00:50:43;16.70;99.90
63960;DHT22;50136;51.374;0.096;2023-06-10T01:00:46;16.60;99.90
63960;DHT22;50136;51.374;0.096;2023-06-10T01:10:51;16.50;99.90
63960;DHT22;50136;51.374;0.096;2023-06-10T01:20:56;16.50;99.90
63960;DHT22;50136;51.374;0.096;2023-06-10T01:31:06;16.30;99.90
63960;DHT22;50136;51.374;0.096;2023-06-10T01:41:12;16.20;99.90
63960;DHT22;50136;51.374;0.096;2023-06-10T01:51:16;16.20;99.90
63960;DHT22;50136;51.374;0.096;2023-06-10T02:01:18;16.00;99.90
63960;DHT22;50136;51.374;0.096;2023-06-10T02:11:21;15.90;99.90
63960;DHT22;50136;51.374;0.096;2023-06-10T02:21:23;15.70;99.90
63960;DHT22;50136;51.374;0.096;2023-06-10T02:31:27;15.60;99.90
63960;DHT22;50136;51.374;0.096;2023-06-10T02:41:29;15.60;99.90
63960;DHT22;50136;51.374;0.096;2023-06-10T02:51:32;15.50;99.90
63960;DHT22;50136;51.374;0.096;2023-06-10T03:01:34;15.40;99.90
63960;DHT22;50136;51.374;0.096;2023-06-10T03:11:38;15.30;99.90
63960;DHT22;50136;51.374;0.096;2023-06-10T03:21:43;15.20;99.90
63960;DHT22;50136;51.374;0.096;2023-06-10T03:31:46;15.10;99.90
63960;DHT22;50136;51.374;0.096;2023-06-10T03:41:48;15.00;99.90
63960;DHT22;50136;51.374;0.096;2023-06-10T03:51:52;14.90;99.90
63960;DHT22;50136;51.374;0.096;2023-06-10T04:01:54;14.80;99.90
63960;DHT22;50136;51.374;0.096;2023-06-10T04:11:57;14.70;99.90
63960;DHT22;50136;51.374;0.096;2023-06-10T04:22:01;14.70;99.90
63960;DHT22;50136;51.374;0.096;2023-06-10T04:32:05;14.70;99.90
63960;DHT22;50136;51.374;0.096;2023-06-10T04:42:07;14.70;99.90
63960;DHT22;50136;51.374;0.096;2023-06-10T04:52:11;14.80;99.90
63960;DHT22;50136;51.374;0.096;2023-06-10T05:02:13;14.90;99.90
63960;DHT22;50136;51.374;0.096;2023-06-10T05:12:16;14.90;99.90
63960;DHT22;50136;51.374;0.096;2023-06-10T05:22:18;15.10;99.90
63960;DHT22;50136;51.374;0.096;2023-06-10T05:32:21;15.20;99.90
63960;DHT22;50136;51.374;0.096;2023-06-10T05:42:24;15.30;99.90
63960;DHT22;50136;51.374;0.096;2023-06-10T05:52:27;15.50;99.90
63960;DHT22;50136;51.374;0.096;2023-06-10T06:02:29;15.70;99.90
63960;DHT22;50136;51.374;0.096;2023-06-10T06:12:34;15.90;99.90
63960;DHT22;50136;51.374;0.096;2023-06-10T06:22:36;16.20;99.90
63960;DHT22;50136;51.374;0.096;2023-06-10T06:32:39;16.40;99.90
63960;DHT22;50136;51.374;0.096;2023-06-10T06:42:41;16.60;99.90
63960;DHT22;50136;51.374;0.096;2023-06-10T06:52:44;16.90;99.90
63960;DHT22;50136;51.374;0.096;2023-06-10T07:02:46;17.30;99.90
63960;DHT22;50136;51.374;0.096;2023-06-10T07:12:50;17.70;99.90
63960;DHT22;50136;51.374;0.096;2023-06-10T07:22:52;18.10;99.90
63960;DHT22;50136;51.374;0.096;2023-06-10T07:32:55;18.40;99.90
63960;DHT22;50136;51.374;0.096;2023-06-10T07:42:57;19.00;99.90
63960;DHT22;50136;51.374;0.096;2023-06-10T07:53:01;19.60;99.90
63960;DHT22;50136;51.374;0.096;2023-06-10T08:03:03;22.60;99.90
63960;DHT22;50136;51.374;0.096;2023-06-10T08:13:08;24.80;99.90
63960;DHT22;50136;51.374;0.096;2023-06-10T08:23:10;27.20;99.90
63960;DHT22;50136;51.374;0.096;2023-06-10T08:33:13;28.80;99.10
63960;DHT22;50136;51.374;0.096;2023-06-10T08:43:26;29.50;95.60
63960;DHT22;50136;51.374;0.096;2023-06-10T08:53:34;30.70;94.10
63960;DHT22;50136;51.374;0.096;2023-06-10T09:03:39;31.80;92.50
63960;DHT22;50136;51.374;0.096;2023-06-10T09:13:42;32.30;92.90
63960;DHT22;50136;51.374;0.096;2023-06-10T09:23:45;32.60;91.40
63960;DHT22;50136;51.374;0.096;2023-06-10T09:33:49;32.50;91.40
63960;DHT22;50136;51.374;0.096;2023-06-10T09:43:51;31.60;91.80
63960;DHT22;50136;51.374;0.096;2023-06-10T09:53:54;32.20;90.80
63960;DHT22;50136;51.374;0.096;2023-06-10T10:03:56;33.30;90.40
63960;DHT22;50136;51.374;0.096;2023-06-10T10:14:00;32.90;89.90
63960;DHT22;50136;51.374;0.096;2023-06-10T10:24:09;33.00;88.50
63960;DHT22;50136;51.374;0.096;2023-06-10T10:34:21;33.30;87.60
63960;DHT22;50136;51.374;0.096;2023-06-10T10:44:24;33.40;88.70
63960;DHT22;50136;51.374;0.096;2023-06-10T10:54:31;33.80;88.60
63960;DHT22;50136;51.374;0.096;2023-06-10T11:04:33;33.20;88.00
63960;DHT22;50136;51.374;0.096;2023-06-10T11:25:51;33.30;87.40
63960;DHT22;50136;51.374;0.096;2023-06-10T11:58:12;31.80;90.60
63960;DHT22;50136;51.374;0.096;2023-06-10T12:08:14;31.40;90.50
63960;DHT22;50136;51.374;0.096;2023-06-10T12:28:58;31.10;90.50
63960;DHT22;50136;51.374;0.096;2023-06-10T12:39:05;31.10;90.60
63960;DHT22;50136;51.374;0.096;2023-06-10T13:00:29;31.30;86.40
63960;DHT22;50136;51.374;0.096;2023-06-10T13:10:31;31.50;84.40
63960;DHT22;50136;51.374;0.096;2023-06-10T13:42:28;30.90;87.60
63960;DHT22;50136;51.374;0.096;2023-06-10T13:52:38;30.70;87.80
63960;DHT22;50136;51.374;0.096;2023-06-10T14:02:47;30.50;89.50
63960;DHT22;50136;51.374;0.096;2023-06-10T14:12:49;30.90;89.10
63960;DHT22;50136;51.374;0.096;2023-06-10T14:22:53;30.80;88.40
63960;DHT22;50136;51.374;0.096;2023-06-10T14:32:55;30.80;88.60
63960;DHT22;50136;51.374;0.096;2023-06-10T14:42:58;30.30;88.60
63960;DHT22;50136;51.374;0.096;2023-06-10T14:53:01;30.00;89.40
63960;DHT22;50136;51.374;0.096;2023-06-10T15:03:05;30.30;88.90
63960;DHT22;50136;51.374;0.096;2023-06-10T15:13:07;30.30;88.30
63960;DHT22;50136;51.374;0.096;2023-06-10T15:23:11;29.90;88.70
63960;DHT22;50136;51.374;0.096;2023-06-10T15:33:13;29.80;88.60
63960;DHT22;50136;51.374;0.096;2023-06-10T15:54:07;29.80;88.20
63960;DHT22;50136;51.374;0.096;2023-06-10T16:04:09;29.80;87.90
63960;DHT22;50136;51.374;0.096;2023-06-10T16:14:13;29.70;88.40
63960;DHT22;50136;51.374;0.096;2023-06-10T16:24:15;29.60;87.70
63960;DHT22;50136;51.374;0.096;2023-06-10T16:44:40;28.90;88.40
63960;DHT22;50136;51.374;0.096;2023-06-10T16:54:42;28.00;88.80
63960;DHT22;50136;51.374;0.096;2023-06-10T17:04:46;28.00;88.30
63960;DHT22;50136;51.374;0.096;2023-06-10T17:14:48;27.90;88.30
63960;DHT22;50136;51.374;0.096;2023-06-10T17:24:51;27.70;88.50
63960;DHT22;50136;51.374;0.096;2023-06-10T17:34:53;27.10;89.90
63960;DHT22;50136;51.374;0.096;2023-06-10T17:45:08;27.00;90.40
63960;DHT22;50136;51.374;0.096;2023-06-10T17:55:10;26.60;90.90
63960;DHT22;50136;51.374;0.096;2023-06-10T18:05:14;26.40;90.90
63960;DHT22;50136;51.374;0.096;2023-06-10T18:15:25;26.20;91.10
63960;DHT22;50136;51.374;0.096;2023-06-10T18:25:32;26.00;91.40
63960;DHT22;50136;51.374;0.096;2023-06-10T18:35:34;25.90;91.40
63960;DHT22;50136;51.374;0.096;2023-06-10T18:45:40;25.60;91.40
63960;DHT22;50136;51.374;0.096;2023-06-10T18:55:44;25.30;91.50
63960;DHT22;50136;51.374;0.096;2023-06-10T19:05:47;25.00;91.60
63960;DHT22;50136;51.374;0.096;2023-06-10T19:15:49;24.60;91.90
63960;DHT22;50136;51.374;0.096;2023-06-10T19:25:53;24.40;92.10
63960;DHT22;50136;51.374;0.096;2023-06-10T19:35:55;24.10;92.40
63960;DHT22;50136;51.374;0.096;2023-06-10T19:45:58;23.70;92.70
63960;DHT22;50136;51.374;0.096;2023-06-10T19:56:00;23.40;93.10
63960;DHT22;50136;51.374;0.096;2023-06-10T20:06:04;23.10;93.50
63960;DHT22;50136;51.374;0.096;2023-06-10T20:16:06;22.90;93.60
63960;DHT22;50136;51.374;0.096;2023-06-10T20:26:09;22.60;93.90
63960;DHT22;50136;51.374;0.096;2023-06-10T20:36:11;22.30;94.10
63960;DHT22;50136;51.374;0.096;2023-06-10T20:46:15;22.00;94.20
63960;DHT22;50136;51.374;0.096;2023-06-10T20:56:20;21.70;94.70
63960;DHT22;50136;51.374;0.096;2023-06-10T21:06:23;21.40;95.10
63960;DHT22;50136;51.374;0.096;2023-06-10T21:16:25;21.20;95.20
63960;DHT22;50136;51.374;0.096;2023-06-10T21:26:29;21.00;95.60
63960;DHT22;50136;51.374;0.096;2023-06-10T21:36:31;20.60;96.70
63960;DHT22;50136;51.374;0.096;2023-06-10T21:46:35;20.50;96.50
63960;DHT22;50136;51.374;0.096;2023-06-10T21:56:37;20.40;96.90
63960;DHT22;50136;51.374;0.096;2023-06-10T22:06:40;20.10;97.30
63960;DHT22;50136;51.374;0.096;2023-06-10T22:16:42;20.00;97.50
63960;DHT22;50136;51.374;0.096;2023-06-10T22:26:46;19.90;97.90
63960;DHT22;50136;51.374;0.096;2023-06-10T22:36:54;19.80;98.20
63960;DHT22;50136;51.374;0.096;2023-06-10T22:46:57;19.60;98.70
63960;DHT22;50136;51.374;0.096;2023-06-10T22:56:59;19.50;99.20
63960;DHT22;50136;51.374;0.096;2023-06-10T23:07:03;19.40;99.50
63960;DHT22;50136;51.374;0.096;2023-06-10T23:17:05;19.20;99.90
63960;DHT22;50136;51.374;0.096;2023-06-10T23:27:09;19.00;99.90
63960;DHT22;50136;51.374;0.096;2023-06-10T23:37:11;18.90;99.90
63960;DHT22;50136;51.374;0.096;2023-06-10T23:47:14;18.80;99.90
63960;DHT22;50136;51.374;0.096;2023-06-10T23:57:16;18.60;99.90
